createdAt,value
2023-02-03T00:00:27.052Z,1017.95
2023-02-03T00:01:26.769Z,1017.38
2023-02-03T00:02:26.717Z,1017.40
2023-02-03T00:03:26.698Z,1017.43
2023-02-03T00:04:26.637Z,1017.20
2023-02-03T00:05:26.583Z,1017.13
2023-02-03T00:06:26.537Z,1017.11
2023-02-03T00:07:26.497Z,1017.35
2023-02-03T00:08:26.456Z,1017.26
2023-02-03T00:09:26.427Z,1017.14
2023-02-03T00:10:26.660Z,1016.99
2023-02-03T00:11:26.332Z,1017.24
2023-02-03T00:12:26.286Z,1017.05
2023-02-03T00:13:26.248Z,1017.04
2023-02-03T00:14:26.201Z,1017.00
2023-02-03T00:15:26.165Z,1017.28
2023-02-03T00:16:26.200Z,1017.08
2023-02-03T00:17:26.088Z,1017.18
2023-02-03T00:18:26.041Z,1017.00
2023-02-03T00:19:25.997Z,1017.03
2023-02-03T00:20:26.332Z,1016.90
2023-02-03T00:21:25.911Z,1017.00
2023-02-03T00:22:25.888Z,1017.41
2023-02-03T00:23:25.826Z,1017.07
2023-02-03T00:24:25.791Z,1017.11
2023-02-03T00:25:25.743Z,1017.23
2023-02-03T00:26:25.695Z,1017.13
2023-02-03T00:27:25.657Z,1016.98
2023-02-03T00:28:25.612Z,1016.94
2023-02-03T00:29:25.578Z,1017.05
2023-02-03T00:30:25.675Z,1016.83
2023-02-03T00:31:25.566Z,1017.03
2023-02-03T00:32:25.564Z,1017.20
2023-02-03T00:33:25.416Z,1017.46
2023-02-03T00:34:25.367Z,1017.59
2023-02-03T00:35:25.337Z,1017.23
2023-02-03T00:36:25.321Z,1017.07
2023-02-03T00:37:25.235Z,1017.52
2023-02-03T00:38:25.193Z,1017.36
2023-02-03T00:39:25.150Z,1017.25
2023-02-03T00:40:25.534Z,1017.25
2023-02-03T00:41:25.081Z,1016.91
2023-02-03T00:42:25.020Z,1016.95
2023-02-03T00:43:24.986Z,1016.73
2023-02-03T00:44:24.943Z,1016.79
2023-02-03T00:45:24.899Z,1016.83
2023-02-03T00:46:24.859Z,1016.88
2023-02-03T00:47:24.826Z,1016.87
2023-02-03T00:48:24.769Z,1016.81
2023-02-03T00:49:24.739Z,1017.11
2023-02-03T00:50:25.031Z,1017.00
2023-02-03T00:51:24.649Z,1017.15
2023-02-03T00:52:24.596Z,1017.24
2023-02-03T00:53:24.576Z,1017.25
2023-02-03T00:54:24.514Z,1016.81
2023-02-03T00:55:24.478Z,1017.39
2023-02-03T00:56:24.431Z,1016.93
2023-02-03T00:57:24.400Z,1017.16
2023-02-03T00:58:24.362Z,1017.27
2023-02-03T00:59:24.323Z,1017.13
2023-02-03T01:00:24.756Z,1016.97
2023-02-03T01:01:24.316Z,1017.50
2023-02-03T01:02:24.216Z,1017.36
2023-02-03T01:03:24.193Z,1017.62
2023-02-03T01:04:24.107Z,1017.30
2023-02-03T01:05:24.057Z,1017.16
2023-02-03T01:06:24.014Z,1017.40
2023-02-03T01:07:24.840Z,1017.33
2023-02-03T01:08:23.940Z,1017.41
2023-02-03T01:09:23.886Z,1017.58
2023-02-03T01:10:24.050Z,1017.40
2023-02-03T01:11:23.810Z,1017.32
2023-02-03T01:12:23.763Z,1017.32
2023-02-03T01:13:23.720Z,1017.28
2023-02-03T01:14:23.679Z,1017.27
2023-02-03T01:15:23.655Z,1017.33
2023-02-03T01:16:23.644Z,1017.78
2023-02-03T01:17:23.557Z,1017.86
2023-02-03T01:18:23.544Z,1018.03
2023-02-03T01:19:23.482Z,1017.84
2023-02-03T01:20:23.423Z,1017.84
2023-02-03T01:21:23.397Z,1017.68
2023-02-03T01:22:23.354Z,1017.77
2023-02-03T01:23:23.306Z,1017.49
2023-02-03T01:24:23.259Z,1017.41
2023-02-03T01:25:23.246Z,1017.59
2023-02-03T01:26:23.170Z,1017.53
2023-02-03T01:27:23.152Z,1017.47
2023-02-03T01:28:23.096Z,1017.54
2023-02-03T01:29:23.054Z,1017.48
2023-02-03T01:30:23.255Z,1017.41
2023-02-03T01:31:23.130Z,1018.00
2023-02-03T01:32:22.917Z,1018.01
2023-02-03T01:33:22.886Z,1017.72
2023-02-03T01:34:22.853Z,1017.87
2023-02-03T01:35:22.818Z,1017.72
2023-02-03T01:36:22.751Z,1017.76
2023-02-03T01:37:22.721Z,1017.72
2023-02-03T01:38:22.706Z,1017.79
2023-02-03T01:39:22.632Z,1018.03
2023-02-03T01:40:22.619Z,1017.57
2023-02-03T01:41:22.579Z,1017.49
2023-02-03T01:42:22.517Z,1017.43
2023-02-03T01:43:22.461Z,1017.44
2023-02-03T01:44:22.431Z,1017.70
2023-02-03T01:45:22.382Z,1017.61
2023-02-03T01:46:22.375Z,1017.71
2023-02-03T01:47:22.299Z,1017.68
2023-02-03T01:48:22.254Z,1017.57
2023-02-03T01:49:22.208Z,1017.97
2023-02-03T01:50:22.171Z,1017.54
2023-02-03T01:51:22.135Z,1017.49
2023-02-03T01:52:22.091Z,1018.02
2023-02-03T01:53:22.044Z,1017.91
2023-02-03T01:54:22.000Z,1017.88
2023-02-03T01:55:21.973Z,1018.08
2023-02-03T01:56:21.909Z,1018.12
2023-02-03T01:57:21.878Z,1017.72
2023-02-03T01:58:21.855Z,1017.67
2023-02-03T01:59:21.795Z,1017.37
2023-02-03T02:00:21.744Z,1017.21
2023-02-03T02:01:21.753Z,1017.09
2023-02-03T02:02:21.707Z,1017.02
2023-02-03T02:03:21.626Z,1017.05
2023-02-03T02:04:21.585Z,1017.08
2023-02-03T02:05:21.571Z,1017.10
2023-02-03T02:06:21.500Z,1017.11
2023-02-03T02:07:21.460Z,1017.18
2023-02-03T02:08:21.415Z,1017.47
2023-02-03T02:09:21.377Z,1017.37
2023-02-03T02:10:21.338Z,1017.62
2023-02-03T02:11:21.289Z,1017.97
2023-02-03T02:12:21.236Z,1017.93
2023-02-03T02:13:21.199Z,1017.92
2023-02-03T02:14:21.163Z,1018.11
2023-02-03T02:15:21.141Z,1017.74
2023-02-03T02:16:21.128Z,1017.84
2023-02-03T02:17:21.036Z,1017.98
2023-02-03T02:18:20.986Z,1018.05
2023-02-03T02:19:20.951Z,1018.01
2023-02-03T02:20:21.035Z,1017.60
2023-02-03T02:21:20.885Z,1017.44
2023-02-03T02:22:20.830Z,1017.36
2023-02-03T02:23:20.794Z,1017.35
2023-02-03T02:24:20.733Z,1017.22
2023-02-03T02:25:20.722Z,1017.09
2023-02-03T02:26:20.653Z,1017.42
2023-02-03T02:27:20.639Z,1017.13
2023-02-03T02:28:20.624Z,1016.96
2023-02-03T02:29:20.532Z,1016.85
2023-02-03T02:30:20.486Z,1017.13
2023-02-03T02:31:20.547Z,1016.91
2023-02-03T02:32:20.398Z,1017.49
2023-02-03T02:33:20.374Z,1017.17
2023-02-03T02:34:20.327Z,1016.96
2023-02-03T02:35:20.275Z,1017.51
2023-02-03T02:36:20.255Z,1017.46
2023-02-03T02:37:20.212Z,1017.51
2023-02-03T02:38:20.154Z,1017.71
2023-02-03T02:39:20.114Z,1017.16
2023-02-03T02:40:20.059Z,1017.00
2023-02-03T02:41:20.035Z,1017.01
2023-02-03T02:42:19.976Z,1017.17
2023-02-03T02:43:19.957Z,1017.37
2023-02-03T02:44:19.893Z,1017.11
2023-02-03T02:45:19.856Z,1017.20
2023-02-03T02:46:19.859Z,1017.29
2023-02-03T02:47:19.781Z,1017.06
2023-02-03T02:48:19.727Z,1017.10
2023-02-03T02:49:19.698Z,1017.03
2023-02-03T02:50:19.663Z,1017.11
2023-02-03T02:51:19.604Z,1016.92
2023-02-03T02:52:19.562Z,1017.13
2023-02-03T02:53:19.532Z,1017.57
2023-02-03T02:54:19.483Z,1017.21
2023-02-03T02:55:19.432Z,1017.13
2023-02-03T02:56:19.390Z,1017.24
2023-02-03T02:57:19.348Z,1017.25
2023-02-03T02:58:19.305Z,1017.06
2023-02-03T02:59:19.284Z,1016.99
2023-02-03T03:00:19.221Z,1017.05
2023-02-03T03:01:19.408Z,1016.94
2023-02-03T03:02:19.139Z,1016.75
2023-02-03T03:03:19.099Z,1016.73
2023-02-03T03:04:19.068Z,1016.74
2023-02-03T03:05:19.012Z,1016.64
2023-02-03T03:06:18.969Z,1016.62
2023-02-03T03:07:18.926Z,1016.92
2023-02-03T03:08:18.906Z,1016.79
2023-02-03T03:09:18.845Z,1017.11
2023-02-03T03:10:18.818Z,1017.22
2023-02-03T03:11:18.761Z,1017.25
2023-02-03T03:12:18.721Z,1016.90
2023-02-03T03:13:18.674Z,1017.11
2023-02-03T03:14:18.635Z,1017.25
2023-02-03T03:15:18.592Z,1016.72
2023-02-03T03:16:18.606Z,1016.63
2023-02-03T03:17:18.513Z,1016.67
2023-02-03T03:18:18.468Z,1016.76
2023-02-03T03:19:18.421Z,1017.21
2023-02-03T03:20:18.392Z,1017.45
2023-02-03T03:21:18.338Z,1017.48
2023-02-03T03:22:18.311Z,1017.24
2023-02-03T03:23:18.255Z,1017.53
2023-02-03T03:24:18.220Z,1017.70
2023-02-03T03:25:18.176Z,1017.38
2023-02-03T03:26:18.132Z,1017.34
2023-02-03T03:27:18.087Z,1017.40
2023-02-03T03:28:18.157Z,1017.08
2023-02-03T03:29:18.006Z,1017.11
2023-02-03T03:30:17.961Z,1017.00
2023-02-03T03:31:18.052Z,1016.95
2023-02-03T03:32:17.889Z,1016.89
2023-02-03T03:33:17.852Z,1016.84
2023-02-03T03:34:17.810Z,1016.75
2023-02-03T03:35:17.762Z,1017.45
2023-02-03T03:36:17.718Z,1017.48
2023-02-03T03:37:17.671Z,1017.14
2023-02-03T03:38:17.627Z,1017.48
2023-02-03T03:39:17.592Z,1017.41
2023-02-03T03:40:17.541Z,1017.34
2023-02-03T03:41:17.501Z,1016.99
2023-02-03T03:42:17.458Z,1016.78
2023-02-03T03:43:17.414Z,1016.72
2023-02-03T03:44:17.376Z,1016.85
2023-02-03T03:45:17.343Z,1016.69
2023-02-03T03:46:17.369Z,1017.05
2023-02-03T03:47:17.249Z,1017.03
2023-02-03T03:48:17.218Z,1017.49
2023-02-03T03:49:17.163Z,1017.09
2023-02-03T03:50:17.122Z,1017.03
2023-02-03T03:51:17.082Z,1017.03
2023-02-03T03:52:17.053Z,1017.15
2023-02-03T03:53:17.000Z,1017.33
2023-02-03T03:54:16.971Z,1017.32
2023-02-03T03:55:16.911Z,1017.36
2023-02-03T03:56:16.878Z,1017.34
2023-02-03T03:57:16.830Z,1016.91
2023-02-03T03:58:16.786Z,1017.01
2023-02-03T03:59:16.739Z,1017.03
2023-02-03T04:00:16.725Z,1016.92
2023-02-03T04:01:16.721Z,1017.46
2023-02-03T04:02:16.659Z,1017.51
2023-02-03T04:03:16.691Z,1017.55
2023-02-03T04:04:16.541Z,1017.24
2023-02-03T04:05:16.491Z,1017.56
2023-02-03T04:06:16.459Z,1017.14
2023-02-03T04:07:16.420Z,1017.11
2023-02-03T04:08:16.372Z,1017.01
2023-02-03T04:09:16.328Z,1017.16
2023-02-03T04:10:16.302Z,1017.27
2023-02-03T04:11:16.248Z,1017.06
2023-02-03T04:12:16.201Z,1017.45
2023-02-03T04:13:16.176Z,1017.41
2023-02-03T04:14:16.118Z,1017.31
2023-02-03T04:15:16.068Z,1017.02
2023-02-03T04:16:16.110Z,1016.91
2023-02-03T04:17:16.023Z,1016.73
2023-02-03T04:18:15.950Z,1017.13
2023-02-03T04:19:15.898Z,1017.37
2023-02-03T04:20:15.865Z,1016.94
2023-02-03T04:21:15.831Z,1017.01
2023-02-03T04:22:15.786Z,1016.92
2023-02-03T04:23:15.734Z,1017.09
2023-02-03T04:24:15.705Z,1017.31
2023-02-03T04:25:15.662Z,1017.35
2023-02-03T04:26:15.618Z,1017.45
2023-02-03T04:27:15.596Z,1017.47
2023-02-03T04:28:15.654Z,1017.19
2023-02-03T04:29:15.483Z,1016.87
2023-02-03T04:30:15.463Z,1016.97
2023-02-03T04:31:15.488Z,1016.69
2023-02-03T04:32:15.374Z,1016.58
2023-02-03T04:33:15.329Z,1016.60
2023-02-03T04:34:15.295Z,1016.72
2023-02-03T04:35:15.255Z,1016.67
2023-02-03T04:36:15.197Z,1016.70
2023-02-03T04:37:15.160Z,1016.97
2023-02-03T04:38:15.113Z,1016.90
2023-02-03T04:39:15.075Z,1017.38
2023-02-03T04:40:15.041Z,1017.42
2023-02-03T04:41:14.991Z,1017.62
2023-02-03T04:42:14.937Z,1017.13
2023-02-03T04:43:14.908Z,1017.21
2023-02-03T04:44:14.884Z,1017.52
2023-02-03T04:45:14.812Z,1017.55
2023-02-03T04:46:14.854Z,1016.95
2023-02-03T04:47:14.728Z,1016.84
2023-02-03T04:48:14.691Z,1016.72
2023-02-03T04:49:14.644Z,1016.63
2023-02-03T04:50:14.623Z,1016.62
2023-02-03T04:51:14.567Z,1016.54
2023-02-03T04:52:14.529Z,1016.53
2023-02-03T04:53:16.067Z,1016.49
2023-02-03T04:54:14.437Z,1016.49
2023-02-03T04:55:14.421Z,1016.46
2023-02-03T04:56:14.359Z,1016.47
2023-02-03T04:57:14.308Z,1016.45
2023-02-03T04:58:14.273Z,1016.48
2023-02-03T04:59:14.232Z,1016.93
2023-02-03T05:00:14.196Z,1017.25
2023-02-03T05:01:14.207Z,1016.95
2023-02-03T05:02:14.108Z,1016.65
2023-02-03T05:03:14.118Z,1016.59
2023-02-03T05:04:14.018Z,1016.52
2023-02-03T05:05:13.989Z,1016.49
2023-02-03T05:06:13.943Z,1016.69
2023-02-03T05:07:21.515Z,1016.74
2023-02-03T05:08:13.855Z,1016.63
2023-02-03T05:09:13.804Z,1016.84
2023-02-03T05:10:13.781Z,1017.25
2023-02-03T05:11:13.722Z,1017.23
2023-02-03T05:12:13.680Z,1016.75
2023-02-03T05:13:13.640Z,1016.60
2023-02-03T05:14:13.604Z,1016.87
2023-02-03T05:15:13.561Z,1017.14
2023-02-03T05:16:13.557Z,1016.83
2023-02-03T05:17:13.477Z,1016.74
2023-02-03T05:18:13.432Z,1016.95
2023-02-03T05:19:13.384Z,1016.87
2023-02-03T05:20:13.377Z,1016.72
2023-02-03T05:21:13.309Z,1016.68
2023-02-03T05:22:13.261Z,1016.67
2023-02-03T05:23:13.229Z,1016.81
2023-02-03T05:24:13.211Z,1017.16
2023-02-03T05:25:13.136Z,1016.98
2023-02-03T05:26:13.104Z,1016.72
2023-02-03T05:27:13.052Z,1016.52
2023-02-03T05:28:13.044Z,1016.44
2023-02-03T05:29:12.978Z,1016.39
2023-02-03T05:30:12.928Z,1016.46
2023-02-03T05:31:13.102Z,1016.69
2023-02-03T05:32:12.888Z,1016.87
2023-02-03T05:33:12.804Z,1016.98
2023-02-03T05:34:12.764Z,1016.82
2023-02-03T05:35:12.745Z,1017.04
2023-02-03T05:36:12.678Z,1017.16
2023-02-03T05:37:12.632Z,1017.25
2023-02-03T05:38:12.591Z,1017.01
2023-02-03T05:39:12.548Z,1017.33
2023-02-03T05:40:12.506Z,1017.02
2023-02-03T05:41:12.486Z,1016.72
2023-02-03T05:42:12.426Z,1016.59
2023-02-03T05:43:12.381Z,1016.58
2023-02-03T05:44:12.340Z,1016.79
2023-02-03T05:45:12.303Z,1016.95
2023-02-03T05:46:12.334Z,1017.13
2023-02-03T05:47:12.213Z,1016.81
2023-02-03T05:48:12.182Z,1017.24
2023-02-03T05:49:12.126Z,1017.30
2023-02-03T05:50:12.088Z,1017.33
2023-02-03T05:51:12.056Z,1017.34
2023-02-03T05:52:12.012Z,1017.27
2023-02-03T05:53:11.962Z,1016.98
2023-02-03T05:54:11.921Z,1017.39
2023-02-03T05:55:11.884Z,1017.44
2023-02-03T05:56:11.858Z,1017.48
2023-02-03T05:57:11.797Z,1017.37
2023-02-03T05:58:11.752Z,1017.05
2023-02-03T05:59:11.708Z,1017.01
2023-02-03T06:00:11.681Z,1017.02
2023-02-03T06:01:11.626Z,1016.79
2023-02-03T06:02:11.591Z,1016.82
2023-02-03T06:03:11.572Z,1017.31
2023-02-03T06:04:11.646Z,1016.91
2023-02-03T06:05:11.469Z,1016.88
2023-02-03T06:06:11.418Z,1016.81
2023-02-03T06:07:11.383Z,1016.88
2023-02-03T06:08:11.365Z,1017.26
2023-02-03T06:09:11.293Z,1017.34
2023-02-03T06:10:11.251Z,1017.43
2023-02-03T06:11:11.218Z,1017.49
2023-02-03T06:12:11.203Z,1017.14
2023-02-03T06:13:11.125Z,1017.47
2023-02-03T06:14:11.091Z,1017.04
2023-02-03T06:15:11.038Z,1017.39
2023-02-03T06:16:11.045Z,1017.37
2023-02-03T06:17:10.955Z,1017.38
2023-02-03T06:18:10.920Z,1017.03
2023-02-03T06:19:10.872Z,1017.15
2023-02-03T06:20:10.831Z,1017.48
2023-02-03T06:21:10.804Z,1017.51
2023-02-03T06:22:10.747Z,1017.57
2023-02-03T06:23:10.703Z,1017.54
2023-02-03T06:24:10.668Z,1017.59
2023-02-03T06:25:12.932Z,1017.63
2023-02-03T06:26:10.596Z,1017.34
2023-02-03T06:27:10.545Z,1017.35
2023-02-03T06:28:10.583Z,1017.20
2023-02-03T06:29:10.459Z,1017.37
2023-02-03T06:30:10.408Z,1017.10
2023-02-03T06:31:10.497Z,1017.01
2023-02-03T06:32:10.325Z,1017.01
2023-02-03T06:33:10.281Z,1017.26
2023-02-03T06:34:10.276Z,1017.25
2023-02-03T06:35:10.204Z,1017.55
2023-02-03T06:36:10.161Z,1017.07
2023-02-03T06:37:10.115Z,1016.98
2023-02-03T06:38:10.086Z,1017.37
2023-02-03T06:39:10.027Z,1017.11
2023-02-03T06:40:10.007Z,1017.09
2023-02-03T06:41:09.946Z,1017.49
2023-02-03T06:42:09.905Z,1016.91
2023-02-03T06:43:09.866Z,1016.94
2023-02-03T06:44:09.823Z,1016.86
2023-02-03T06:45:09.776Z,1017.05
2023-02-03T06:46:09.781Z,1016.99
2023-02-03T06:47:09.695Z,1016.98
2023-02-03T06:48:09.658Z,1017.05
2023-02-03T06:49:09.615Z,1016.99
2023-02-03T06:50:09.577Z,1017.40
2023-02-03T06:51:09.536Z,1017.35
2023-02-03T06:52:09.501Z,1017.15
2023-02-03T06:53:09.443Z,1017.22
2023-02-03T06:54:09.404Z,1017.00
2023-02-03T06:55:09.360Z,1016.99
2023-02-03T06:56:09.316Z,1016.87
2023-02-03T06:57:09.294Z,1016.80
2023-02-03T06:58:09.233Z,1017.22
2023-02-03T06:59:09.189Z,1017.17
2023-02-03T07:00:09.152Z,1017.37
2023-02-03T07:01:09.158Z,1017.12
2023-02-03T07:02:09.079Z,1017.07
2023-02-03T07:03:09.023Z,1017.08
2023-02-03T07:04:08.977Z,1017.06
2023-02-03T07:05:08.956Z,1017.01
2023-02-03T07:06:08.896Z,1016.89
2023-02-03T07:07:08.870Z,1016.88
2023-02-03T07:08:08.840Z,1016.71
2023-02-03T07:09:08.842Z,1016.70
2023-02-03T07:10:08.734Z,1017.27
2023-02-03T07:11:08.741Z,1016.77
2023-02-03T07:12:08.644Z,1016.70
2023-02-03T07:13:08.612Z,1016.71
2023-02-03T07:14:08.570Z,1017.25
2023-02-03T07:15:08.527Z,1017.31
2023-02-03T07:16:08.595Z,1017.30
2023-02-03T07:17:08.434Z,1017.43
2023-02-03T07:18:08.396Z,1017.45
2023-02-03T07:19:08.377Z,1017.34
2023-02-03T07:20:08.323Z,1017.17
2023-02-03T07:21:08.284Z,1017.21
2023-02-03T07:22:08.224Z,1017.52
2023-02-03T07:23:08.196Z,1017.13
2023-02-03T07:24:08.146Z,1017.29
2023-02-03T07:25:08.118Z,1017.15
2023-02-03T07:26:08.062Z,1017.08
2023-02-03T07:27:08.019Z,1017.48
2023-02-03T07:28:08.022Z,1017.26
2023-02-03T07:29:07.937Z,1017.07
2023-02-03T07:30:07.895Z,1017.00
2023-02-03T07:31:08.019Z,1017.24
2023-02-03T07:32:07.838Z,1017.26
2023-02-03T07:33:07.780Z,1017.39
2023-02-03T07:34:07.731Z,1017.18
2023-02-03T07:35:07.685Z,1017.43
2023-02-03T07:36:07.655Z,1017.08
2023-02-03T07:37:07.601Z,1016.96
2023-02-03T07:38:07.559Z,1016.92
2023-02-03T07:39:07.512Z,1016.93
2023-02-03T07:40:07.474Z,1017.24
2023-02-03T07:41:07.430Z,1017.08
2023-02-03T07:42:07.396Z,1016.89
2023-02-03T07:43:07.349Z,1016.80
2023-02-03T07:44:07.304Z,1017.13
2023-02-03T07:45:07.267Z,1017.30
2023-02-03T07:46:07.314Z,1017.38
2023-02-03T07:47:07.195Z,1017.25
2023-02-03T07:48:07.136Z,1017.17
2023-02-03T07:49:07.106Z,1017.13
2023-02-03T07:50:07.059Z,1017.04
2023-02-03T07:51:07.016Z,1017.09
2023-02-03T07:52:06.980Z,1016.93
2023-02-03T07:53:06.950Z,1016.98
2023-02-03T07:54:06.892Z,1017.41
2023-02-03T07:55:06.857Z,1017.07
2023-02-03T07:56:06.804Z,1017.15
2023-02-03T07:57:06.778Z,1017.23
2023-02-03T07:58:06.718Z,1017.36
2023-02-03T07:59:06.676Z,1017.38
2023-02-03T08:00:06.632Z,1017.52
2023-02-03T08:01:06.595Z,1017.47
2023-02-03T08:02:06.586Z,1017.53
2023-02-03T08:03:06.520Z,1017.52
2023-02-03T08:04:06.481Z,1017.33
2023-02-03T08:05:06.495Z,1017.52
2023-02-03T08:06:06.382Z,1017.71
2023-02-03T08:07:06.346Z,1017.76
2023-02-03T08:08:06.300Z,1017.82
2023-02-03T08:09:06.264Z,1017.75
2023-02-03T08:10:06.223Z,1017.72
2023-02-03T08:11:06.185Z,1017.72
2023-02-03T08:12:06.134Z,1017.74
2023-02-03T08:13:06.102Z,1017.85
2023-02-03T08:14:06.045Z,1017.87
2023-02-03T08:15:06.012Z,1017.64
2023-02-03T08:16:06.005Z,1017.51
2023-02-03T08:17:05.927Z,1017.49
2023-02-03T08:18:05.887Z,1017.39
2023-02-03T08:19:05.854Z,1017.32
2023-02-03T08:20:05.799Z,1017.27
2023-02-03T08:21:05.761Z,1017.20
2023-02-03T08:22:05.722Z,1017.90
2023-02-03T08:23:05.678Z,1018.04
2023-02-03T08:24:05.627Z,1017.78
2023-02-03T08:25:05.593Z,1017.69
2023-02-03T08:26:05.543Z,1017.49
2023-02-03T08:27:05.513Z,1017.48
2023-02-03T08:28:05.512Z,1017.49
2023-02-03T08:29:05.427Z,1017.39
2023-02-03T08:30:05.384Z,1017.27
2023-02-03T08:31:05.446Z,1017.23
2023-02-03T08:32:06.101Z,1017.20
2023-02-03T08:33:05.257Z,1017.23
2023-02-03T08:34:05.213Z,1017.29
2023-02-03T08:35:05.171Z,1017.22
2023-02-03T08:36:05.139Z,1017.21
2023-02-03T08:37:05.091Z,1017.53
2023-02-03T08:38:05.053Z,1017.23
2023-02-03T08:39:05.004Z,1017.23
2023-02-03T08:40:04.960Z,1017.37
2023-02-03T08:41:04.923Z,1017.30
2023-02-03T08:42:04.876Z,1017.32
2023-02-03T08:43:04.836Z,1017.29
2023-02-03T08:44:04.804Z,1017.56
2023-02-03T08:45:05.289Z,1017.43
2023-02-03T08:46:04.710Z,1017.74
2023-02-03T08:47:04.675Z,1017.59
2023-02-03T08:48:04.629Z,1017.47
2023-02-03T08:49:04.593Z,1017.40
2023-02-03T08:50:04.559Z,1017.76
2023-02-03T08:51:04.504Z,1017.86
2023-02-03T08:52:04.458Z,1017.61
2023-02-03T08:53:04.421Z,1017.63
2023-02-03T08:54:04.375Z,1017.42
2023-02-03T08:55:04.338Z,1017.90
2023-02-03T08:56:04.310Z,1017.86
2023-02-03T08:57:04.264Z,1017.58
2023-02-03T08:58:04.211Z,1017.68
2023-02-03T08:59:04.173Z,1018.06
2023-02-03T09:00:04.125Z,1017.72
2023-02-03T09:01:04.141Z,1017.66
2023-02-03T09:02:04.047Z,1017.83
2023-02-03T09:03:03.999Z,1017.88
2023-02-03T09:04:03.967Z,1017.68
2023-02-03T09:05:03.964Z,1017.58
2023-02-03T09:06:03.873Z,1017.70
2023-02-03T09:07:03.850Z,1017.99
2023-02-03T09:08:03.791Z,1017.76
2023-02-03T09:09:03.755Z,1018.00
2023-02-03T09:10:03.713Z,1017.67
2023-02-03T09:11:03.665Z,1017.46
2023-02-03T09:12:03.624Z,1017.43
2023-02-03T09:13:03.598Z,1017.82
2023-02-03T09:14:03.539Z,1017.87
2023-02-03T09:15:03.503Z,1017.51
2023-02-03T09:16:03.455Z,1017.56
2023-02-03T09:17:03.429Z,1017.95
2023-02-03T09:18:03.370Z,1017.91
2023-02-03T09:19:03.355Z,1017.94
2023-02-03T09:20:03.401Z,1017.66
2023-02-03T09:21:03.248Z,1017.57
2023-02-03T09:22:03.207Z,1017.52
2023-02-03T09:23:03.162Z,1017.44
2023-02-03T09:24:03.116Z,1017.36
2023-02-03T09:25:03.094Z,1017.39
2023-02-03T09:26:03.062Z,1017.52
2023-02-03T09:27:03.004Z,1017.48
2023-02-03T09:28:03.007Z,1017.48
2023-02-03T09:29:02.910Z,1017.48
2023-02-03T09:30:02.888Z,1017.62
2023-02-03T09:31:02.858Z,1017.90
2023-02-03T09:32:02.821Z,1017.66
2023-02-03T09:33:02.746Z,1017.70
2023-02-03T09:34:02.705Z,1017.79
2023-02-03T09:35:02.661Z,1018.18
2023-02-03T09:36:02.635Z,1017.92
2023-02-03T09:37:02.576Z,1017.79
2023-02-03T09:38:02.536Z,1017.69
2023-02-03T09:39:02.514Z,1017.60
2023-02-03T09:40:02.447Z,1017.71
2023-02-03T09:41:11.277Z,1017.75
2023-02-03T09:42:02.371Z,1018.06
2023-02-03T09:43:02.328Z,1018.07
2023-02-03T09:44:02.280Z,1018.07
2023-02-03T09:45:02.250Z,1017.68
2023-02-03T09:46:02.260Z,1017.63
2023-02-03T09:47:02.156Z,1018.06
2023-02-03T09:48:02.125Z,1018.15
2023-02-03T09:49:02.071Z,1018.25
2023-02-03T09:50:02.028Z,1018.26
2023-02-03T09:51:01.986Z,1017.90
2023-02-03T09:52:01.942Z,1017.95
2023-02-03T09:53:01.919Z,1017.64
2023-02-03T09:54:01.864Z,1017.70
2023-02-03T09:55:01.821Z,1017.76
2023-02-03T09:56:01.779Z,1017.68
2023-02-03T09:57:01.735Z,1017.65
2023-02-03T09:58:01.694Z,1017.57
2023-02-03T09:59:01.667Z,1017.71
2023-02-03T10:00:01.633Z,1017.60
2023-02-03T10:01:01.661Z,1017.54
2023-02-03T10:02:01.577Z,1018.07
2023-02-03T10:03:01.513Z,1017.89
2023-02-03T10:04:01.588Z,1017.59
2023-02-03T10:05:01.422Z,1017.62
2023-02-03T10:06:01.360Z,1017.78
2023-02-03T10:07:01.316Z,1018.05
2023-02-03T10:08:01.271Z,1017.72
2023-02-03T10:09:01.251Z,1017.94
2023-02-03T10:10:01.193Z,1018.07
2023-02-03T10:11:01.147Z,1017.76
2023-02-03T10:12:01.107Z,1018.32
2023-02-03T10:13:01.066Z,1018.14
2023-02-03T10:14:01.019Z,1018.26
2023-02-03T10:15:01.000Z,1018.03
2023-02-03T10:16:00.939Z,1017.79
2023-02-03T10:17:00.973Z,1018.06
2023-02-03T10:18:00.873Z,1017.78
2023-02-03T10:19:02.619Z,1017.71
2023-02-03T10:20:00.780Z,1017.71
2023-02-03T10:21:00.741Z,1017.45
2023-02-03T10:22:00.685Z,1017.87
2023-02-03T10:23:00.651Z,1017.71
2023-02-03T10:24:00.664Z,1018.18
2023-02-03T10:25:00.575Z,1017.99
2023-02-03T10:26:00.535Z,1018.15
2023-02-03T10:27:00.492Z,1017.64
2023-02-03T10:28:00.476Z,1017.60
2023-02-03T10:29:00.399Z,1017.64
2023-02-03T10:30:00.351Z,1017.61
2023-02-03T10:31:00.486Z,1017.66
2023-02-03T10:32:00.501Z,1018.09
2023-02-03T10:33:00.225Z,1017.82
2023-02-03T10:34:00.178Z,1017.49
2023-02-03T10:35:00.151Z,1017.52
2023-02-03T10:36:00.137Z,1017.39
2023-02-03T10:37:00.093Z,1017.46
2023-02-03T10:38:00.012Z,1017.91
2023-02-03T10:38:59.978Z,1017.70
2023-02-03T10:39:59.940Z,1018.01
2023-02-03T10:40:59.908Z,1018.03
2023-02-03T10:41:59.850Z,1018.17
2023-02-03T10:42:59.822Z,1017.86
2023-02-03T10:43:59.765Z,1017.83
2023-02-03T10:44:59.728Z,1018.25
2023-02-03T10:45:59.743Z,1018.04
2023-02-03T10:46:59.653Z,1017.85
2023-02-03T10:47:59.598Z,1017.90
2023-02-03T10:48:59.590Z,1017.92
2023-02-03T10:49:59.523Z,1018.28
2023-02-03T10:50:59.482Z,1018.41
2023-02-03T10:51:59.454Z,1017.90
2023-02-03T10:52:59.395Z,1017.75
2023-02-03T10:53:59.345Z,1017.80
2023-02-03T10:54:59.375Z,1017.61
2023-02-03T10:55:59.271Z,1017.54
2023-02-03T10:56:59.224Z,1017.59
2023-02-03T10:57:59.178Z,1017.56
2023-02-03T10:58:59.140Z,1017.64
2023-02-03T10:59:59.098Z,1017.57
2023-02-03T11:00:59.080Z,1017.82
2023-02-03T11:01:59.050Z,1018.10
2023-02-03T11:02:59.088Z,1018.19
2023-02-03T11:03:58.929Z,1018.27
2023-02-03T11:04:58.889Z,1017.90
2023-02-03T11:05:58.843Z,1017.65
2023-02-03T11:06:58.832Z,1017.50
2023-02-03T11:08:08.142Z,1017.47
2023-02-03T11:08:58.735Z,1017.66
2023-02-03T11:09:58.679Z,1017.54
2023-02-03T11:10:58.638Z,1017.98
2023-02-03T11:11:58.601Z,1017.55
2023-02-03T11:12:58.568Z,1017.97
2023-02-03T11:13:58.511Z,1017.70
2023-02-03T11:14:58.473Z,1017.57
2023-02-03T11:15:58.476Z,1017.85
2023-02-03T11:16:58.397Z,1017.67
2023-02-03T11:17:58.348Z,1017.84
2023-02-03T11:18:58.305Z,1017.82
2023-02-03T11:19:58.261Z,1017.73
2023-02-03T11:20:58.234Z,1017.66
2023-02-03T11:21:58.173Z,1018.01
2023-02-03T11:22:58.148Z,1017.66
2023-02-03T11:23:58.098Z,1017.64
2023-02-03T11:24:58.050Z,1018.05
2023-02-03T11:25:58.008Z,1018.18
2023-02-03T11:26:58.091Z,1017.99
2023-02-03T11:27:57.974Z,1018.25
2023-02-03T11:28:57.907Z,1018.33
2023-02-03T11:29:57.844Z,1018.29
2023-02-03T11:30:57.902Z,1018.44
2023-02-03T11:31:58.024Z,1018.44
2023-02-03T11:32:57.719Z,1017.97
2023-02-03T11:33:57.674Z,1018.09
2023-02-03T11:34:57.651Z,1017.81
2023-02-03T11:35:57.597Z,1017.77
2023-02-03T11:36:57.551Z,1017.79
2023-02-03T11:37:57.531Z,1017.86
2023-02-03T11:38:57.467Z,1017.85
2023-02-03T11:39:57.456Z,1018.00
2023-02-03T11:40:57.428Z,1017.98
2023-02-03T11:41:57.346Z,1017.91
2023-02-03T11:42:57.310Z,1018.25
2023-02-03T11:43:57.267Z,1017.98
2023-02-03T11:44:57.219Z,1017.94
2023-02-03T11:45:57.181Z,1018.27
2023-02-03T11:46:57.173Z,1017.95
2023-02-03T11:47:57.106Z,1017.85
2023-02-03T11:48:57.054Z,1017.81
2023-02-03T11:49:57.027Z,1017.90
2023-02-03T11:50:56.967Z,1017.80
2023-02-03T11:51:57.081Z,1017.76
2023-02-03T11:52:56.899Z,1018.17
2023-02-03T11:53:57.706Z,1018.20
2023-02-03T11:54:56.802Z,1018.26
2023-02-03T11:55:56.762Z,1017.89
2023-02-03T11:56:56.720Z,1017.89
2023-02-03T11:57:56.677Z,1017.75
2023-02-03T11:58:56.651Z,1017.91
2023-02-03T11:59:56.611Z,1018.29
2023-02-03T12:00:56.553Z,1018.31
2023-02-03T12:01:56.515Z,1018.05
2023-02-03T12:02:56.533Z,1017.97
2023-02-03T12:03:56.435Z,1017.87
2023-02-03T12:04:56.453Z,1017.76